createdAt,value
2022-09-27T00:04:22.222Z,12.31
2022-09-27T00:09:25.105Z,10.61
2022-09-27T00:14:29.139Z,12.44
2022-09-27T00:19:32.214Z,12.42
2022-09-27T00:24:35.386Z,12.40
2022-09-27T00:29:41.678Z,12.38
2022-09-27T00:34:44.521Z,12.40
2022-09-27T00:39:47.152Z,12.38
2022-09-27T00:45:05.068Z,12.31
2022-09-27T00:50:15.290Z,12.43
2022-09-27T00:55:21.585Z,10.18
2022-09-27T01:00:27.789Z,12.13
2022-09-27T01:05:33.567Z,12.26
2022-09-27T01:10:41.904Z,12.31
2022-09-27T01:15:54.953Z,12.26
2022-09-27T01:21:40.648Z,12.33
2022-09-27T01:27:13.541Z,11.95
2022-09-27T01:32:24.143Z,10.66
2022-09-27T01:37:37.983Z,12.22
2022-09-27T01:42:47.989Z,12.22
2022-09-27T01:47:57.754Z,12.25
2022-09-27T01:53:29.900Z,12.23
2022-09-27T01:59:01.727Z,12.21
2022-09-27T02:04:12.273Z,12.16
2022-09-27T02:09:39.341Z,12.26
2022-09-27T02:14:54.198Z,12.12
2022-09-27T02:20:07.728Z,12.06
2022-09-27T02:25:24.912Z,12.22
2022-09-27T02:30:30.379Z,12.16
2022-09-27T02:35:40.542Z,12.11
2022-09-27T02:40:49.008Z,11.85
2022-09-27T02:46:06.767Z,12.03
2022-09-27T02:51:29.018Z,9.35
2022-09-27T02:56:39.272Z,12.01
2022-09-27T03:02:13.910Z,11.87
2022-09-27T03:07:38.487Z,11.90
2022-09-27T03:12:41.515Z,11.85
2022-09-27T03:17:44.635Z,11.86
2022-09-27T03:23:04.125Z,11.82
2022-09-27T03:28:06.837Z,11.78
2022-09-27T03:33:10.230Z,11.54
2022-09-27T03:38:27.508Z,10.10
2022-09-27T03:43:30.196Z,11.31
2022-09-27T03:48:37.197Z,11.38
2022-09-27T03:53:42.787Z,11.49
2022-09-27T03:58:50.315Z,9.81
2022-09-27T04:03:56.700Z,11.48
2022-09-27T04:09:10.217Z,10.17
2022-09-27T04:14:39.104Z,11.21
2022-09-27T04:20:09.461Z,10.90
2022-09-27T04:25:15.344Z,10.03
2022-09-27T04:30:28.674Z,8.81
2022-09-27T04:36:23.711Z,9.73
2022-09-27T04:41:49.691Z,11.38
2022-09-27T04:46:58.719Z,11.02
2022-09-27T04:52:02.345Z,11.23
2022-09-27T04:57:09.603Z,11.37
2022-09-27T05:02:15.692Z,9.67
2022-09-27T05:07:42.695Z,9.94
2022-09-27T05:12:52.594Z,9.88
2022-09-27T05:17:55.969Z,9.16
2022-09-27T05:23:07.873Z,8.35
2022-09-27T05:28:16.781Z,10.77
2022-09-27T05:33:21.576Z,11.27
2022-09-27T05:38:25.670Z,11.19
2022-09-27T05:43:33.036Z,11.27
2022-09-27T05:48:37.632Z,11.30
2022-09-27T05:53:43.322Z,11.35
2022-09-27T05:58:56.196Z,11.46
2022-09-27T06:03:59.797Z,11.60
2022-09-27T06:09:21.080Z,11.07
2022-09-27T06:14:26.266Z,11.39
2022-09-27T06:19:36.672Z,10.75
2022-09-27T06:24:39.763Z,11.39
2022-09-27T06:29:52.778Z,11.34
2022-09-27T06:35:11.049Z,11.43
2022-09-27T06:40:14.167Z,11.27
2022-09-27T06:45:29.304Z,11.19
2022-09-27T06:50:52.819Z,11.39
2022-09-27T06:55:59.108Z,11.45
2022-09-27T07:01:05.135Z,9.95
2022-09-27T07:06:28.029Z,11.44
2022-09-27T07:11:36.573Z,11.48
2022-09-27T07:16:44.181Z,11.34
2022-09-27T07:21:47.221Z,11.33
2022-09-27T07:26:50.150Z,10.81
2022-09-27T07:31:57.498Z,9.69
2022-09-27T07:37:01.629Z,11.87
2022-09-27T07:42:06.158Z,11.78
2022-09-27T07:47:11.074Z,11.95
2022-09-27T07:52:42.502Z,11.81
2022-09-27T07:58:04.712Z,11.86
2022-09-27T08:03:09.772Z,11.60
2022-09-27T08:08:12.720Z,11.91
2022-09-27T08:13:20.327Z,11.89
2022-09-27T08:18:26.717Z,11.68
2022-09-27T08:23:29.797Z,10.41
2022-09-27T08:29:01.676Z,11.24
2022-09-27T08:34:08.632Z,11.93
2022-09-27T08:39:11.585Z,11.02
2022-09-27T08:44:28.968Z,11.03
2022-09-27T08:49:53.636Z,11.83
2022-09-27T08:54:59.163Z,12.39
2022-09-27T09:00:18.043Z,12.43
2022-09-27T09:05:30.257Z,12.51
2022-09-27T09:11:08.264Z,11.90
2022-09-27T09:16:22.364Z,12.40
2022-09-27T09:21:36.679Z,11.59
2022-09-27T09:26:45.880Z,11.56
2022-09-27T09:31:58.618Z,13.02
2022-09-27T09:37:05.296Z,12.73
2022-09-27T09:42:12.987Z,12.61
2022-09-27T09:47:26.087Z,11.69
2022-09-27T09:52:40.940Z,12.51
2022-09-27T09:57:55.592Z,12.54
2022-09-27T10:03:02.010Z,12.51
2022-09-27T10:08:14.001Z,12.21
2022-09-27T10:13:19.077Z,12.80
2022-09-27T10:18:26.357Z,12.91
2022-09-27T10:23:31.317Z,12.70
2022-09-27T10:28:50.900Z,12.48
2022-09-27T10:34:01.565Z,12.66
2022-09-27T10:39:23.698Z,12.82
2022-09-27T10:44:28.920Z,13.02
2022-09-27T10:49:52.255Z,12.96
2022-09-27T10:55:22.415Z,12.55
2022-09-27T11:00:33.563Z,12.84
2022-09-27T11:05:40.229Z,12.76
2022-09-27T11:11:02.417Z,12.02
2022-09-27T11:16:30.156Z,13.03
2022-09-27T11:21:45.706Z,13.09
2022-09-27T11:27:00.162Z,12.31
2022-09-27T11:32:17.548Z,12.76
2022-09-27T11:37:32.087Z,11.21
2022-09-27T11:42:57.582Z,12.92
2022-09-27T11:48:17.365Z,12.35
2022-09-27T11:53:37.488Z,12.15
2022-09-27T11:58:57.053Z,12.41
2022-09-27T12:04:20.918Z,12.63
2022-09-27T12:09:31.619Z,10.83
2022-09-27T12:14:40.535Z,12.92
2022-09-27T12:19:50.808Z,12.83
2022-09-27T12:25:20.326Z,11.15
2022-09-27T12:30:41.077Z,12.95
2022-09-27T12:35:51.358Z,12.86
2022-09-27T12:40:59.400Z,12.82
2022-09-27T12:46:25.170Z,12.63
2022-09-27T12:51:38.357Z,10.96
2022-09-27T13:05:11.338Z,11.79
2022-09-27T13:39:16.914Z,11.80
2022-09-27T13:45:01.304Z,14.27
2022-09-27T13:50:18.503Z,13.93
2022-09-27T13:55:45.819Z,14.30
2022-09-27T14:01:26.795Z,13.40
2022-09-27T14:06:36.432Z,14.14
2022-09-27T14:11:43.789Z,12.00
2022-09-27T14:16:48.977Z,14.00
2022-09-27T14:21:53.799Z,14.10
2022-09-27T14:27:19.624Z,14.10
2022-09-27T14:32:27.537Z,13.67
2022-09-27T14:37:40.556Z,13.25
2022-09-27T14:42:54.613Z,13.52
2022-09-27T14:47:58.540Z,12.07
2022-09-27T14:53:04.980Z,13.72
2022-09-27T14:58:35.999Z,13.76
2022-09-27T15:03:44.180Z,13.82
2022-09-27T15:08:49.496Z,13.72
2022-09-27T15:13:55.027Z,13.39
2022-09-27T15:19:03.057Z,13.34
2022-09-27T15:24:07.426Z,13.58
2022-09-27T15:29:20.641Z,12.37
2022-09-27T15:34:23.474Z,12.25
2022-09-27T15:39:32.250Z,13.39
2022-09-27T15:44:47.629Z,13.27
2022-09-27T15:49:50.651Z,11.02
2022-09-27T15:54:53.418Z,10.08
2022-09-27T16:00:03.054Z,12.92
2022-09-27T16:05:17.150Z,11.48
2022-09-27T16:10:22.187Z,12.01
2022-09-27T16:15:27.151Z,12.53
2022-09-27T16:20:31.907Z,10.51
2022-09-27T16:25:35.398Z,10.69
2022-09-27T16:30:39.556Z,11.64
2022-09-27T16:35:42.618Z,11.66
2022-09-27T16:40:46.031Z,12.09
2022-09-27T16:45:50.237Z,12.16
2022-09-27T16:51:10.924Z,11.49
2022-09-27T16:56:13.680Z,11.57
2022-09-27T17:01:19.317Z,11.96
2022-09-27T17:06:23.371Z,10.52
2022-09-27T17:11:26.473Z,10.77
2022-09-27T17:16:36.811Z,11.11
2022-09-27T17:21:41.274Z,11.89
2022-09-27T17:26:44.714Z,10.73
2022-09-27T17:31:49.150Z,10.77
2022-09-27T17:36:52.594Z,10.88
2022-09-27T17:41:55.385Z,11.78
2022-09-27T17:47:17.096Z,11.51
2022-09-27T17:52:19.945Z,10.49
2022-09-27T17:57:23.486Z,10.23
2022-09-27T18:02:33.502Z,10.20
2022-09-27T18:07:37.354Z,11.80
2022-09-27T18:12:41.155Z,11.86
2022-09-27T18:17:45.990Z,10.69
2022-09-27T18:22:49.111Z,11.56
2022-09-27T18:27:55.585Z,10.66
2022-09-27T18:33:13.609Z,9.31
2022-09-27T18:38:19.990Z,10.56
2022-09-27T18:44:00.376Z,8.09
2022-09-27T18:49:08.223Z,9.68
2022-09-27T18:54:33.483Z,11.34
2022-09-27T18:59:52.746Z,9.70
2022-09-27T19:05:10.456Z,10.73
2022-09-27T19:10:26.009Z,11.10
2022-09-27T19:15:42.223Z,11.14
2022-09-27T19:21:21.474Z,8.12
2022-09-27T19:26:28.181Z,8.34
2022-09-27T19:31:36.164Z,10.18
2022-09-27T19:36:40.607Z,9.33
2022-09-27T19:41:43.419Z,10.24
2022-09-27T19:46:49.265Z,10.26
2022-09-27T19:51:56.066Z,10.18
2022-09-27T19:57:00.304Z,11.01
2022-09-27T20:02:03.642Z,9.18
2022-09-27T20:07:08.332Z,10.75
2022-09-27T20:12:15.174Z,8.14
2022-09-27T20:17:18.989Z,9.96
2022-09-27T20:22:23.859Z,9.69
2022-09-27T20:27:27.523Z,10.82
2022-09-27T20:32:35.077Z,9.85
2022-09-27T20:37:40.444Z,10.70
2022-09-27T20:42:44.217Z,10.68
2022-09-27T20:47:48.101Z,10.66
2022-09-27T20:52:52.779Z,9.56
2022-09-27T20:57:57.648Z,10.70
2022-09-27T21:03:01.114Z,9.96
2022-09-27T21:08:05.529Z,9.16
2022-09-27T21:13:08.704Z,8.17
2022-09-27T21:18:12.422Z,7.24
2022-09-27T21:23:20.629Z,8.58
2022-09-27T21:28:24.269Z,10.54
2022-09-27T21:33:27.304Z,10.60
2022-09-27T21:38:32.568Z,10.30
2022-09-27T21:43:37.542Z,10.63
2022-09-27T21:48:43.229Z,10.57
2022-09-27T21:53:51.088Z,10.44
2022-09-27T21:58:53.818Z,10.45
2022-09-27T22:03:57.123Z,9.72
2022-09-27T22:09:03.050Z,10.39
2022-09-27T22:14:07.129Z,10.40
2022-09-27T22:19:14.350Z,9.82
2022-09-27T22:24:27.002Z,9.75
2022-09-27T22:29:37.453Z,7.60
2022-09-27T22:34:40.365Z,9.81
2022-09-27T22:39:50.992Z,10.28
2022-09-27T22:44:53.819Z,9.74
2022-09-27T22:49:58.605Z,10.30
2022-09-27T22:55:02.597Z,10.08
2022-09-27T23:00:07.383Z,10.28
2022-09-27T23:05:10.333Z,10.33
2022-09-27T23:10:40.301Z,10.27
2022-09-27T23:15:43.200Z,10.27
2022-09-27T23:20:45.864Z,8.93
2022-09-27T23:25:51.073Z,10.19
2022-09-27T23:30:53.755Z,10.09
2022-09-27T23:35:56.982Z,9.82
2022-09-27T23:41:03.365Z,10.05
2022-09-27T23:46:08.090Z,10.12
2022-09-27T23:51:12.508Z,7.53
2022-09-27T23:56:20.558Z,9.19
